Time;durP1;ratioP1;P1;durP2;ratioP2;P2;SDS_P1;SDS_P2;PMS_P1;PMS_P2;Temp;Humidity;BMP_temperature;BMP_pressure;BME280_temperature;BME280_humidity;BME280_pressure;Samples;Min_cycle;Max_cycle;Signal;HPM_P1;HPM_P2
2023/07/20 00:01:29;;;;;;;2.72;1.55;;;;;;;-145.63;49.02;39133.75;5043843;28;20064;-66
2023/07/20 00:03:55;;;;;;;5.97;1.90;;;;;;;-145.63;49.39;39071.19;5059329;28;20056;-67
2023/07/20 00:06:22;;;;;;;2.17;1.77;;;;;;;-145.63;49.33;39102.47;5052857;28;20512;-68
2023/07/20 00:08:48;;;;;;;3.58;1.33;;;;;;;-145.63;49.00;39139.63;5049895;28;20035;-68
2023/07/20 00:11:13;;;;;;;2.53;1.63;;;;;;;-145.63;49.06;39125.94;5062909;28;20028;-68
2023/07/20 00:13:40;;;;;;;4.88;1.58;;;;;;;-145.63;49.36;39137.69;5058710;28;20067;-68
2023/07/20 00:16:05;;;;;;;3.63;1.55;;;;;;;-145.63;49.26;39122.03;5046775;28;20021;-68
2023/07/20 00:18:31;;;;;;;4.40;1.50;;;;;;;-145.63;49.71;39098.56;5055408;28;20148;-68
2023/07/20 00:20:57;;;;;;;2.30;1.48;;;;;;;-145.63;49.59;39092.69;5055436;28;20034;-67
2023/07/20 00:23:23;;;;;;;3.90;1.67;;;;;;;-145.63;49.54;39141.59;5046141;28;20021;-67
2023/07/20 00:25:49;;;;;;;4.97;2.00;;;;;;;-145.63;49.82;39141.59;5062372;28;20067;-68
2023/07/20 00:28:14;;;;;;;2.20;1.70;;;;;;;-145.63;50.37;39120.06;5045914;28;20026;-68
2023/07/20 00:30:40;;;;;;;5.63;1.75;;;;;;;-145.63;49.76;39123.97;5055298;28;20106;-69
2023/07/20 00:33:10;;;;;;;4.22;1.83;;;;;;;-145.63;49.61;39139.63;5055204;28;20327;-69
2023/07/20 00:35:37;;;;;;;6.28;2.00;;;;;;;-145.63;49.43;39129.84;5047719;28;20035;-68
2023/07/20 00:38:03;;;;;;;5.88;1.70;;;;;;;-145.63;49.63;39098.56;5063745;28;20325;-68
2023/07/20 00:40:36;;;;;;;2.38;1.70;;;;;;;-145.63;50.30;39077.06;5048555;28;20021;-68
2023/07/20 00:43:03;;;;;;;3.78;1.60;;;;;;;-145.63;50.01;39122.03;5029697;28;20025;-68
2023/07/20 00:45:29;;;;;;;4.47;1.60;;;;;;;-145.63;50.09;39141.59;5042274;28;20021;-68
2023/07/20 00:47:57;;;;;;;3.20;1.40;;;;;;;-145.63;49.85;39127.91;5050039;28;20025;-68
2023/07/20 00:50:24;;;;;;;6.05;1.50;;;;;;;-145.63;49.99;39120.06;5060069;28;20082;-68
2023/07/20 00:52:49;;;;;;;3.17;1.60;;;;;;;-145.63;50.26;39125.94;5043293;28;20049;-68
2023/07/20 00:55:15;;;;;;;4.85;1.52;;;;;;;-145.63;50.44;39141.59;5061146;28;20079;-68
2023/07/20 00:57:41;;;;;;;2.78;1.50;;;;;;;-145.63;50.31;39096.59;5059300;28;20044;-68
2023/07/20 01:00:08;;;;;;;2.08;1.27;;;;;;;-145.63;50.29;39149.41;5054655;28;20033;-68
2023/07/20 01:02:33;;;;;;;3.67;1.70;;;;;;;-145.63;50.55;39149.41;5045351;28;20053;-68
2023/07/20 01:05:00;;;;;;;4.72;1.48;;;;;;;-145.63;50.50;39141.59;5061775;28;20033;-69
2023/07/20 01:07:32;;;;;;;8.27;1.98;;;;;;;-145.63;50.38;39141.59;5063104;28;20055;-68
2023/07/20 01:10:28;;;;;;;3.03;1.60;;;;;;;-145.63;50.17;39174.84;5046813;28;20033;-67
2023/07/20 01:12:55;;;;;;;4.60;2.00;;;;;;;-145.63;50.64;39147.44;5056364;28;20040;-69
2023/07/20 01:15:21;;;;;;;1.90;1.40;;;;;;;-145.63;50.30;39125.94;5052856;28;20055;-68
2023/07/20 01:17:47;;;;;;;2.38;1.70;;;;;;;-145.63;50.20;39143.53;5043480;28;20026;-67
2023/07/20 01:20:15;;;;;;;3.88;1.33;;;;;;;-145.63;50.14;39147.44;5047710;28;20030;-67
2023/07/20 01:22:59;;;;;;;3.47;1.35;;;;;;;-145.63;50.55;39135.72;5067128;28;20029;-68
2023/07/20 01:26:11;;;;;;;1.35;1.20;;;;;;;-145.63;50.36;39125.94;5047095;28;20029;-68
2023/07/20 01:28:48;;;;;;;3.08;1.50;;;;;;;-145.63;50.30;39159.19;5047209;28;20033;-68
2023/07/20 01:31:24;;;;;;;4.50;1.60;;;;;;;-145.63;50.30;39196.34;5064002;28;20329;-68
2023/07/20 01:33:53;;;;;;;3.50;1.40;;;;;;;-145.63;50.39;39288.25;5052985;28;20345;-68
2023/07/20 01:36:21;;;;;;;2.72;1.60;;;;;;;-145.63;50.07;39123.97;5056453;28;20032;-68
2023/07/20 01:38:47;;;;;;;4.30;1.65;;;;;;;-145.63;50.79;39141.59;5061652;28;20070;-68
2023/07/20 01:41:15;;;;;;;2.83;1.52;;;;;;;-145.63;50.51;39131.81;5056148;28;20031;-67
2023/07/20 01:43:40;;;;;;;4.03;1.50;;;;;;;-145.63;50.50;39145.50;5045549;28;20031;-68
2023/07/20 01:46:06;;;;;;;3.90;1.60;;;;;;;-145.63;50.53;39143.53;5061347;28;20284;-68
2023/07/20 01:48:32;;;;;;;2.90;1.40;;;;;;;-145.63;50.80;39172.88;5054171;28;20025;-68
2023/07/20 01:50:58;;;;;;;2.63;1.60;;;;;;;-145.63;50.95;39170.91;5051824;28;20140;-68
2023/07/20 01:53:23;;;;;;;3.13;1.48;;;;;;;-145.63;50.94;39159.19;5064779;28;20221;-68
2023/07/20 01:56:12;;;;;;;3.83;1.50;;;;;;;-145.63;51.26;39170.91;5046418;28;20092;-68
2023/07/20 01:58:38;;;;;;;4.03;1.50;;;;;;;-145.63;51.29;39180.69;5046538;28;20237;-68
2023/07/20 02:01:04;;;;;;;2.40;1.42;;;;;;;-145.63;51.10;39188.53;5061781;28;20052;-68
2023/07/20 02:03:30;;;;;;;3.65;1.50;;;;;;;-145.63;51.25;39149.41;5060749;28;20017;-68
2023/07/20 02:05:56;;;;;;;2.22;1.50;;;;;;;-145.63;51.11;39161.13;5066391;28;20233;-69
2023/07/20 02:08:22;;;;;;;2.53;1.63;;;;;;;-145.63;51.00;39145.50;5053263;28;20032;-69
2023/07/20 02:10:49;;;;;;;1.75;1.50;;;;;;;-145.63;51.06;39163.09;5066199;28;20289;-69
2023/07/20 02:13:15;;;;;;;4.70;1.50;;;;;;;-145.63;51.18;39167.00;5065931;28;20020;-68
2023/07/20 02:15:42;;;;;;;2.70;1.40;;;;;;;-145.63;51.30;39153.31;5054137;28;20037;-68
2023/07/20 02:18:09;;;;;;;5.75;1.73;;;;;;;-145.63;51.03;39151.38;5046000;28;20048;-68
2023/07/20 02:20:35;;;;;;;6.78;1.73;;;;;;;-145.63;50.93;39145.50;5049119;28;20029;-68
2023/07/20 02:23:01;;;;;;;3.38;1.67;;;;;;;-145.63;50.93;39149.41;5065706;28;20028;-67
2023/07/20 02:25:26;;;;;;;2.28;1.40;;;;;;;-145.63;50.89;39153.31;5047412;28;20021;-68
2023/07/20 02:27:52;;;;;;;1.95;1.48;;;;;;;-145.63;51.58;39141.59;5059258;28;20031;-68
2023/07/20 02:30:18;;;;;;;3.15;1.48;;;;;;;-145.63;50.83;39135.72;5052178;28;20024;-68
2023/07/20 02:32:48;;;;;;;4.47;1.25;;;;;;;-145.63;50.91;39131.81;5051792;28;20025;-68
2023/07/20 02:35:15;;;;;;;1.75;1.38;;;;;;;-145.63;50.91;39123.97;5060042;28;20025;-68
2023/07/20 02:37:40;;;;;;;3.60;1.33;;;;;;;-145.63;50.93;39153.31;5045572;28;20036;-68
2023/07/20 02:40:07;;;;;;;2.72;1.60;;;;;;;-145.63;51.04;39123.97;5049624;28;20021;-68
2023/07/20 02:42:33;;;;;;;3.50;1.38;;;;;;;-145.63;50.80;39114.22;5053512;28;20052;-69
2023/07/20 02:44:59;;;;;;;3.50;1.50;;;;;;;-145.63;51.22;39116.16;5045743;28;20064;-68
2023/07/20 02:47:25;;;;;;;2.65;1.67;;;;;;;-145.63;50.79;39151.38;5052772;28;20051;-68
2023/07/20 02:49:51;;;;;;;1.92;1.27;;;;;;;-145.63;51.20;39137.69;5044887;28;20375;-69
2023/07/20 02:52:16;;;;;;;5.43;1.52;;;;;;;-145.63;50.91;39125.94;5062312;28;20306;-68
2023/07/20 02:54:42;;;;;;;2.05;1.40;;;;;;;-145.63;50.56;39135.72;5052643;28;20029;-68
2023/07/20 02:57:07;;;;;;;1.60;1.40;;;;;;;-145.63;50.26;39157.22;5053072;28;20028;-68
2023/07/20 02:59:33;;;;;;;2.03;1.23;;;;;;;-145.63;50.46;39114.22;5062155;28;20026;-68
2023/07/20 03:01:59;;;;;;;2.45;1.70;;;;;;;-145.63;50.28;39104.44;5044905;28;20397;-68
2023/07/20 03:04:27;;;;;;;4.30;1.63;;;;;;;-145.63;50.28;39131.81;5054066;28;20090;-69
2023/07/20 03:06:53;;;;;;;3.50;1.20;;;;;;;-145.63;50.04;39133.75;5049919;28;20053;-68
2023/07/20 03:09:19;;;;;;;4.40;1.67;;;;;;;-145.63;50.45;39120.06;5054254;28;20020;-68
2023/07/20 03:11:45;;;;;;;4.10;1.42;;;;;;;-145.63;50.13;39082.91;5059325;28;20041;-68
2023/07/20 03:14:11;;;;;;;4.13;1.48;;;;;;;-145.63;50.17;39114.22;5043897;28;20310;-67
2023/07/20 03:16:37;;;;;;;2.40;1.50;;;;;;;-145.63;50.31;39122.03;5045043;28;20029;-67
2023/07/20 03:19:03;;;;;;;5.20;1.88;;;;;;;-145.63;50.54;39127.91;5059662;28;20202;-68
2023/07/20 03:21:29;;;;;;;3.30;2.00;;;;;;;-145.63;50.30;39122.03;5054185;28;20033;-68
2023/07/20 03:23:55;;;;;;;4.63;1.45;;;;;;;-145.63;50.05;39120.06;5049011;28;20017;-69
2023/07/20 03:26:21;;;;;;;4.85;1.52;;;;;;;-145.63;49.97;39141.59;5045839;28;20214;-69
2023/07/20 03:28:46;;;;;;;5.75;1.52;;;;;;;-145.63;50.03;39114.22;5063404;28;20025;-68
2023/07/20 03:31:14;;;;;;;4.18;1.10;;;;;;;-145.63;50.33;39112.25;5062056;28;20091;-68
2023/07/20 03:33:40;;;;;;;2.70;1.55;;;;;;;-145.63;49.59;39133.75;5063468;28;20071;-67
2023/07/20 03:36:06;;;;;;;3.80;1.50;;;;;;;-145.63;49.87;39102.47;5056277;28;20025;-68
2023/07/20 03:38:32;;;;;;;2.05;1.20;;;;;;;-145.63;49.70;39118.13;5045709;28;20026;-68
2023/07/20 03:41:00;;;;;;;3.78;1.65;;;;;;;-145.63;49.34;38848.25;5056097;28;20017;-68
2023/07/20 03:43:27;;;;;;;5.47;1.60;;;;;;;-145.63;49.56;39067.28;5062753;28;20044;-68
2023/07/20 03:45:53;;;;;;;5.78;1.73;;;;;;;-145.63;49.22;39039.88;5050922;28;20033;-68
2023/07/20 03:48:23;;;;;;;2.35;1.60;;;;;;;-145.63;49.24;39053.59;5052018;28;20025;-69
2023/07/20 03:50:51;;;;;;;2.78;1.48;;;;;;;-145.63;49.00;39022.28;5058264;28;20209;-69
2023/07/20 03:53:18;;;;;;;3.35;1.45;;;;;;;-145.63;48.88;39037.94;5044347;28;20033;-69
2023/07/20 03:55:48;;;;;;;4.95;1.40;;;;;;;-145.63;48.55;39018.38;5026729;28;20040;-68
2023/07/20 03:58:15;;;;;;;3.78;1.23;;;;;;;-145.63;48.89;39039.88;5060869;28;20021;-68
2023/07/20 04:00:51;;;;;;;6.35;1.65;;;;;;;-145.63;48.68;38996.88;5053056;28;20034;-68
2023/07/20 04:03:18;;;;;;;2.53;1.30;;;;;;;-145.63;48.18;39041.84;5052535;28;20029;-67
2023/07/20 04:05:44;;;;;;;4.70;1.42;;;;;;;-145.63;48.09;39043.81;5050842;28;20047;-68
2023/07/20 04:08:13;;;;;;;3.78;1.52;;;;;;;-145.63;48.10;39037.94;5062792;28;20099;-68
2023/07/20 04:10:43;;;;;;;4.45;1.75;;;;;;;-145.63;47.83;39008.59;5044436;28;20026;-67
2023/07/20 04:13:08;;;;;;;3.17;1.77;;;;;;;-145.63;48.10;39043.81;5059271;28;20037;-67
2023/07/20 04:15:34;;;;;;;7.07;1.52;;;;;;;-145.63;48.05;38883.44;5053025;28;20132;-67
2023/07/20 04:18:00;;;;;;;3.15;1.92;;;;;;;-145.63;47.86;39010.56;5049573;28;20032;-68
2023/07/20 04:20:26;;;;;;;2.22;1.30;;;;;;;-145.63;48.10;39002.72;5062173;28;20026;-68
2023/07/20 04:22:52;;;;;;;4.57;1.55;;;;;;;-145.63;47.51;38994.91;5043417;28;20031;-68
2023/07/20 04:25:18;;;;;;;4.93;1.45;;;;;;;-145.63;47.46;38959.72;5042384;28;20029;-67
2023/07/20 04:27:46;;;;;;;4.70;1.50;;;;;;;-145.63;48.05;38981.22;5056024;28;20037;-67
2023/07/20 04:30:14;;;;;;;2.22;1.35;;;;;;;-145.63;47.22;38951.88;5061196;28;20298;-68
2023/07/20 04:32:46;;;;;;;8.02;1.98;;;;;;;-145.63;47.47;38967.53;5060980;28;20029;-70
2023/07/20 04:35:35;;;;;;;3.35;1.40;;;;;;;-145.63;47.24;38961.66;5043628;28;20047;-69
2023/07/20 04:38:01;;;;;;;2.72;1.48;;;;;;;-145.63;46.83;38969.50;5061335;28;20023;-69
2023/07/20 04:40:27;;;;;;;4.47;1.73;;;;;;;-145.63;47.62;38934.28;5063165;28;20036;-68
2023/07/20 04:42:55;;;;;;;2.80;1.88;;;;;;;-145.63;47.33;38946.03;5050264;28;20025;-67
2023/07/20 04:45:22;;;;;;;5.45;1.80;;;;;;;-145.63;47.21;38973.41;5043253;28;20036;-68
2023/07/20 04:47:51;;;;;;;5.88;1.40;;;;;;;-145.63;47.19;38951.88;5047092;28;20044;-68
2023/07/20 04:50:16;;;;;;;3.47;1.42;;;;;;;-145.63;47.57;38928.44;5061924;28;20025;-68
2023/07/20 04:52:42;;;;;;;6.20;2.17;;;;;;;-145.63;46.76;38928.44;5043364;28;20333;-68
2023/07/20 04:55:08;;;;;;;3.65;1.52;;;;;;;-145.63;47.09;38946.03;5043024;28;20033;-69
2023/07/20 04:57:34;;;;;;;3.05;1.60;;;;;;;-145.63;46.48;38926.47;5053571;28;20029;-68
2023/07/20 05:00:00;;;;;;;8.90;1.85;;;;;;;-145.63;47.43;38922.56;5056180;28;20290;-68
2023/07/20 05:02:26;;;;;;;3.60;1.40;;;;;;;-145.63;46.80;38899.09;5042117;28;20049;-68
2023/07/20 05:04:53;;;;;;;2.88;1.70;;;;;;;-145.63;46.95;38918.66;5061375;28;20073;-68
2023/07/20 05:07:18;;;;;;;3.65;1.70;;;;;;;-145.63;46.56;38910.81;5046694;28;20044;-68
2023/07/20 05:09:44;;;;;;;3.35;1.48;;;;;;;-145.63;46.25;38930.38;5054530;28;20249;-68
2023/07/20 05:12:11;;;;;;;4.25;1.38;;;;;;;-145.63;46.38;38867.81;5056067;28;20068;-69
2023/07/20 05:14:38;;;;;;;7.70;1.67;;;;;;;-145.63;46.52;38867.81;5042844;28;20028;-68
2023/07/20 05:17:04;;;;;;;3.08;1.40;;;;;;;-145.63;45.35;38885.41;5042979;28;20030;-68
2023/07/20 05:19:29;;;;;;;1.77;1.13;;;;;;;-145.63;45.19;38875.63;5060579;28;20025;-69
2023/07/20 05:21:55;;;;;;;4.45;1.80;;;;;;;-145.63;45.67;38799.34;5049814;28;20026;-68
2023/07/20 05:24:20;;;;;;;3.78;1.50;;;;;;;-145.63;45.37;38787.63;5051089;28;20036;-69
2023/07/20 05:26:47;;;;;;;2.50;1.58;;;;;;;-145.63;45.28;38805.22;5059578;28;20033;-68
2023/07/20 05:29:13;;;;;;;2.95;1.30;;;;;;;-145.63;45.27;38738.75;5041714;28;20033;-68
2023/07/20 05:31:39;;;;;;;3.72;1.60;;;;;;;-145.63;44.45;38719.19;5060142;28;20347;-69
2023/07/20 05:34:04;;;;;;;5.03;1.55;;;;;;;-145.63;44.13;38754.38;5062857;28;20033;-69
2023/07/20 05:36:31;;;;;;;4.22;1.45;;;;;;;-145.63;43.64;38754.38;5058857;28;20025;-68
2023/07/20 05:38:56;;;;;;;10.98;2.25;;;;;;;-145.63;43.38;38758.28;5057814;28;20044;-68
2023/07/20 05:41:22;;;;;;;5.25;1.50;;;;;;;-145.63;43.39;38738.75;5054553;28;20048;-68
2023/07/20 05:43:48;;;;;;;4.07;1.52;;;;;;;-145.63;43.58;38738.75;5042744;28;20225;-68
2023/07/20 05:46:14;;;;;;;4.40;1.60;;;;;;;-145.63;43.32;38732.88;5058002;28;20028;-68
2023/07/20 05:48:39;;;;;;;4.50;1.85;;;;;;;-145.63;43.16;38770.03;5052271;28;20030;-68
2023/07/20 05:51:05;;;;;;;2.38;1.65;;;;;;;-145.63;43.17;38773.94;5048465;28;20033;-68
2023/07/20 05:53:31;;;;;;;3.25;1.55;;;;;;;-145.63;42.63;38746.56;5059578;28;20096;-68
2023/07/20 05:55:57;;;;;;;3.63;1.60;;;;;;;-145.63;42.81;38738.75;5041381;28;20241;-68
2023/07/20 05:58:23;;;;;;;4.40;1.30;;;;;;;-145.63;43.12;38723.09;5041220;28;20191;-67
2023/07/20 06:00:49;;;;;;;3.50;1.23;;;;;;;-145.63;42.22;38773.94;5053334;28;20045;-68
2023/07/20 06:03:18;;;;;;;4.32;1.60;;;;;;;-145.63;43.42;38760.25;5041194;28;20214;-68
2023/07/20 06:05:44;;;;;;;4.82;1.40;;;;;;;-145.63;42.48;38789.59;5047147;28;20033;-69
2023/07/20 06:08:09;;;;;;;5.25;1.38;;;;;;;-145.63;42.64;38762.22;5064881;28;20183;-68
2023/07/20 06:10:35;;;;;;;6.60;1.42;;;;;;;-145.63;42.24;38777.84;5049555;28;20055;-70
2023/07/20 06:13:01;;;;;;;4.25;1.70;;;;;;;-145.63;43.08;38754.38;5065752;28;20036;-68
2023/07/20 06:15:31;;;;;;;3.50;1.75;;;;;;;-145.63;42.79;38707.44;5065692;28;20297;-68
2023/07/20 06:17:57;;;;;;;5.35;1.30;;;;;;;-145.63;42.69;38711.38;5065004;28;20100;-68
2023/07/20 06:20:24;;;;;;;2.60;1.35;;;;;;;-145.63;42.31;38674.22;5065521;28;20037;-69
2023/07/20 06:22:50;;;;;;;2.42;1.52;;;;;;;-145.63;41.44;38707.44;5044689;28;20033;-68
2023/07/20 06:25:16;;;;;;;3.50;1.45;;;;;;;-145.63;41.76;38695.72;5045602;28;20073;-68
2023/07/20 06:27:42;;;;;;;7.85;2.60;;;;;;;-145.63;41.70;38674.22;5060691;28;20025;-68
2023/07/20 06:30:08;;;;;;;7.40;3.08;;;;;;;-145.63;41.12;38693.75;5052587;28;20025;-68
2023/07/20 06:32:34;;;;;;;3.38;1.35;;;;;;;-145.63;40.80;38680.06;5064239;28;20021;-68
2023/07/20 06:35:00;;;;;;;9.27;5.13;;;;;;;-145.63;41.51;38684.00;5065558;28;20028;-67
2023/07/20 06:37:26;;;;;;;3.47;1.33;;;;;;;-145.63;40.17;38672.25;5047882;28;20025;-68
2023/07/20 06:39:52;;;;;;;3.85;2.13;;;;;;;-145.63;40.53;38674.22;5057240;28;20373;-66
2023/07/20 06:42:18;;;;;;;6.35;1.77;;;;;;;-145.63;41.06;38680.06;5052683;28;20078;-69
2023/07/20 06:44:43;;;;;;;6.72;2.05;;;;;;;-145.63;40.52;38627.28;5062789;28;20294;-68
2023/07/20 06:47:09;;;;;;;3.58;1.50;;;;;;;-145.63;40.29;38640.97;5044824;28;20044;-69
2023/07/20 06:49:35;;;;;;;1.95;1.20;;;;;;;-145.63;40.02;38650.75;5062866;28;20044;-69
2023/07/20 06:52:01;;;;;;;3.88;1.45;;;;;;;-145.63;39.05;38621.41;5065112;28;20029;-68
2023/07/20 06:54:27;;;;;;;2.67;1.45;;;;;;;-145.63;39.14;38597.94;5055912;28;20028;-68
2023/07/20 06:56:53;;;;;;;3.50;1.40;;;;;;;-145.63;39.45;38621.41;5047319;28;20049;-67
2023/07/20 06:59:18;;;;;;;5.05;1.20;;;;;;;-145.63;37.67;38629.22;5063961;28;20036;-68
2023/07/20 07:01:44;;;;;;;1.85;1.20;;;;;;;-145.63;37.71;38644.88;5058866;28;20049;-68
2023/07/20 07:04:10;;;;;;;4.65;1.42;;;;;;;-145.63;37.94;38644.88;5064772;28;20044;-68
2023/07/20 07:06:37;;;;;;;3.45;1.35;;;;;;;-145.63;37.31;38615.53;5037767;28;20040;-68
2023/07/20 07:09:03;;;;;;;3.15;1.70;;;;;;;-145.63;38.08;38621.41;5048354;28;20202;-69
2023/07/20 07:11:29;;;;;;;4.38;1.42;;;;;;;-145.63;37.93;38582.31;5063586;28;20095;-69
2023/07/20 07:13:55;;;;;;;4.28;1.30;;;;;;;-145.63;36.81;38609.69;5064871;28;20297;-69
2023/07/20 07:16:20;;;;;;;6.80;1.52;;;;;;;-145.63;37.25;38562.75;5047695;28;20041;-68
2023/07/20 07:18:46;;;;;;;5.10;1.42;;;;;;;-145.63;36.14;38431.75;5055485;28;20031;-69
2023/07/20 07:21:12;;;;;;;7.25;2.05;;;;;;;-145.63;36.36;38551.03;5057524;28;20041;-68
2023/07/20 07:23:39;;;;;;;2.53;1.50;;;;;;;-145.63;35.39;38592.09;5045891;28;20024;-69
2023/07/20 07:26:05;;;;;;;2.08;1.30;;;;;;;-145.63;35.23;38504.09;5064725;28;20025;-69
2023/07/20 07:28:31;;;;;;;3.70;1.50;;;;;;;-145.63;34.74;38531.47;5064809;28;20031;-69
2023/07/20 07:30:58;;;;;;;4.05;1.73;;;;;;;-145.63;35.39;38535.38;5058486;28;20028;-69
2023/07/20 07:33:24;;;;;;;1.90;1.13;;;;;;;-145.63;34.40;38609.69;5056225;28;20045;-70
2023/07/20 07:35:52;;;;;;;2.80;1.27;;;;;;;-145.63;34.46;38523.66;5046902;28;20025;-69
2023/07/20 07:38:19;;;;;;;2.97;1.30;;;;;;;-145.63;33.68;38500.19;5064556;28;20029;-67
2023/07/20 07:40:45;;;;;;;2.83;0.95;;;;;;;-145.63;34.61;38519.72;5052499;28;20539;-68
2023/07/20 07:43:11;;;;;;;3.65;1.00;;;;;;;-145.63;33.45;38488.44;5050195;28;20021;-69
2023/07/20 07:45:37;;;;;;;3.63;1.33;;;;;;;-145.63;33.80;38541.25;5044111;28;20025;-68
2023/07/20 07:48:04;;;;;;;4.00;1.38;;;;;;;-145.63;34.20;38508.00;5048523;28;20074;-69
2023/07/20 07:50:29;;;;;;;3.90;1.30;;;;;;;-145.63;33.29;38498.22;5064209;28;20017;-67
2023/07/20 07:52:55;;;;;;;3.25;1.20;;;;;;;-145.63;32.60;38551.03;5044170;28;20029;-69
2023/07/20 07:55:21;;;;;;;4.75;1.40;;;;;;;-145.63;32.79;38558.84;5059193;28;20021;-69
2023/07/20 07:57:47;;;;;;;7.88;1.77;;;;;;;-145.63;32.95;38504.09;5048828;28;20029;-68
2023/07/20 08:00:14;;;;;;;2.97;1.23;;;;;;;-145.63;32.47;38541.25;5049585;28;20021;-68
2023/07/20 08:02:43;;;;;;;4.72;1.33;;;;;;;-145.63;32.45;38588.16;5062698;28;20199;-69
2023/07/20 08:05:09;;;;;;;2.22;1.10;;;;;;;-145.63;32.68;38552.97;5043940;28;20048;-69
2023/07/20 08:07:36;;;;;;;2.55;1.20;;;;;;;-145.63;33.20;38617.50;5060840;28;20044;-69
2023/07/20 08:10:03;;;;;;;7.80;1.42;;;;;;;-145.63;33.92;38332.03;5050020;28;20033;-69
2023/07/20 08:12:30;;;;;;;1.80;1.00;;;;;;;-145.63;32.57;38496.28;5060626;28;20097;-69
2023/07/20 08:14:55;;;;;;;6.95;1.85;;;;;;;-145.63;32.16;38488.44;5060423;28;20025;-71
2023/07/20 08:17:21;;;;;;;4.22;1.02;;;;;;;-145.63;31.78;38613.59;5042586;28;20025;-68
2023/07/20 08:19:47;;;;;;;1.92;1.23;;;;;;;-145.63;33.17;38597.94;5042329;28;20045;-69
2023/07/20 08:22:13;;;;;;;3.45;1.40;;;;;;;-145.63;33.83;38492.34;5057100;28;20040;-70
2023/07/20 08:24:42;;;;;;;7.20;1.42;;;;;;;-145.63;33.35;38511.91;5058423;28;20032;-69
2023/07/20 08:27:09;;;;;;;1.88;1.13;;;;;;;-145.63;33.19;38506.03;5062136;28;20257;-69
2023/07/20 08:29:38;;;;;;;3.70;1.40;;;;;;;-145.63;32.64;38537.34;5061758;28;20032;-69
2023/07/20 08:32:05;;;;;;;4.28;1.38;;;;;;;-145.63;32.45;38504.09;5058182;28;20102;-69
2023/07/20 08:34:31;;;;;;;3.65;1.48;;;;;;;-145.63;32.28;38292.91;5048419;28;20036;-69
2023/07/20 08:36:58;;;;;;;5.88;2.17;;;;;;;-145.63;33.28;38437.59;5047065;28;20032;-68
2023/07/20 08:39:24;;;;;;;4.68;2.03;;;;;;;-145.63;33.51;38404.38;5049426;28;20029;-68
2023/07/20 08:41:51;;;;;;;6.32;2.08;;;;;;;-145.63;33.24;38367.22;5055359;28;20027;-69
2023/07/20 08:44:17;;;;;;;4.88;1.65;;;;;;;-145.63;32.27;38394.59;5054632;28;20024;-70
2023/07/20 08:46:44;;;;;;;2.88;1.50;;;;;;;-145.63;32.62;38402.41;5063121;28;20067;-68
2023/07/20 08:49:11;;;;;;;5.07;1.83;;;;;;;-145.63;31.87;38375.03;5053659;28;20075;-68
2023/07/20 08:51:38;;;;;;;4.45;2.05;;;;;;;-145.63;32.81;38302.69;5057145;28;20025;-69
2023/07/20 08:54:04;;;;;;;2.80;1.77;;;;;;;-145.63;31.59;38345.72;5056785;28;20229;-69
2023/07/20 08:56:33;;;;;;;3.45;1.60;;;;;;;-145.63;31.33;38371.13;5042998;28;20034;-71
2023/07/20 08:59:00;;;;;;;3.80;1.70;;;;;;;-145.63;32.04;38447.38;5045834;28;20031;-70
2023/07/20 09:01:28;;;;;;;4.53;1.80;;;;;;;-145.63;32.70;38388.72;5056875;28;20100;-68
2023/07/20 09:03:54;;;;;;;3.28;1.40;;;;;;;-145.63;32.19;38367.22;5050752;28;20030;-67
2023/07/20 09:06:19;;;;;;;5.20;2.13;;;;;;;-145.63;31.55;38367.22;5041600;28;20225;-67
2023/07/20 09:08:45;;;;;;;5.28;2.40;;;;;;;-145.63;32.12;38375.03;5043960;28;20032;-67
2023/07/20 09:11:13;;;;;;;6.47;2.67;;;;;;;-145.63;32.76;38359.41;5042858;28;20044;-66
2023/07/20 09:13:39;;;;;;;5.15;2.08;;;;;;;-145.63;32.54;38398.50;5041316;28;20093;-67
2023/07/20 09:16:04;;;;;;;4.88;2.42;;;;;;;-145.63;32.61;38343.75;5042340;28;20051;-68
2023/07/20 09:18:34;;;;;;;8.13;3.15;;;;;;;-145.63;33.18;38439.56;5049920;28;20039;-67
2023/07/20 09:21:08;;;;;;;5.63;1.85;;;;;;;-145.63;33.17;38378.94;5058058;28;20025;-66
2023/07/20 09:23:39;;;;;;;2.08;1.58;;;;;;;-145.63;32.59;38355.50;5042565;28;20341;-68
2023/07/20 09:26:13;;;;;;;5.00;1.60;;;;;;;-145.63;32.46;38377.00;5042457;28;20056;-68
2023/07/20 09:28:48;;;;;;;5.72;1.73;;;;;;;-145.63;32.67;38365.25;5059439;28;20029;-69
2023/07/20 09:31:18;;;;;;;2.92;1.50;;;;;;;-145.63;32.66;38420.00;5057074;28;20313;-68
2023/07/20 09:33:45;;;;;;;2.90;1.60;;;;;;;-145.63;33.24;38461.06;5054250;28;20063;-68
2023/07/20 09:36:13;;;;;;;3.15;2.05;;;;;;;-145.63;32.92;38290.97;5061315;28;20416;-69
2023/07/20 09:38:43;;;;;;;2.22;1.50;;;;;;;-145.63;33.22;38363.31;5063142;28;20041;-69
2023/07/20 09:41:15;;;;;;;2.42;1.38;;;;;;;-145.63;33.66;38427.84;5048692;28;20033;-69
2023/07/20 09:43:42;;;;;;;3.38;1.73;;;;;;;-145.63;34.55;38412.19;5057238;28;20080;-68
2023/07/20 09:46:08;;;;;;;4.22;1.65;;;;;;;-145.63;33.19;38429.78;5052558;28;20037;-69
2023/07/20 09:48:34;;;;;;;4.50;1.50;;;;;;;-145.63;33.93;38425.88;5053669;28;20024;-67
2023/07/20 09:50:59;;;;;;;8.55;3.53;;;;;;;-145.63;35.40;38414.16;5066256;28;20033;-67
2023/07/20 09:53:26;;;;;;;5.18;2.17;;;;;;;-145.63;35.53;38468.91;5066503;28;20025;-68
2023/07/20 09:55:54;;;;;;;3.85;1.95;;;;;;;-145.63;36.19;38472.81;5035969;28;20237;-67
2023/07/20 09:58:19;;;;;;;6.88;1.88;;;;;;;-145.63;34.94;38476.72;5059765;28;20044;-68
2023/07/20 10:00:50;;;;;;;3.80;1.95;;;;;;;-145.63;35.72;38496.28;5055632;28;20036;-67
2023/07/20 10:03:21;;;;;;;2.53;1.90;;;;;;;-145.63;35.49;38496.28;5051021;28;20029;-67
2023/07/20 10:05:52;;;;;;;5.10;1.88;;;;;;;-145.63;35.81;38511.91;5065029;28;20037;-66
2023/07/20 10:08:20;;;;;;;5.57;2.00;;;;;;;-145.63;37.12;38560.78;5028247;28;20045;-66
2023/07/20 10:10:47;;;;;;;3.15;1.55;;;;;;;-145.63;37.40;38580.34;5049386;28;20052;-66
2023/07/20 10:13:26;;;;;;;3.70;1.80;;;;;;;-145.63;37.31;38615.53;5066045;28;20114;-68
2023/07/20 10:16:17;;;;;;;2.75;1.70;;;;;;;-145.63;37.60;38613.59;5054871;28;20032;-69
2023/07/20 10:19:10;;;;;;;5.43;2.03;;;;;;;-145.63;37.72;38660.53;5054078;28;20040;-69
2023/07/20 10:21:51;;;;;;;2.67;1.70;;;;;;;-145.63;38.66;38578.41;5060856;28;20052;-69
2023/07/20 10:24:18;;;;;;;3.03;1.35;;;;;;;-145.63;38.67;38578.41;5055232;28;20079;-69
2023/07/20 10:26:44;;;;;;;3.67;1.90;;;;;;;-145.63;38.22;38592.09;5056673;28;20150;-68
2023/07/20 10:29:11;;;;;;;2.53;1.60;;;;;;;-145.63;38.70;38596.00;5054780;28;20378;-68
2023/07/20 10:31:38;;;;;;;4.50;1.80;;;;;;;-145.63;38.73;38539.28;5056838;28;20041;-70
2023/07/20 10:34:04;;;;;;;4.10;2.05;;;;;;;-145.63;38.12;38496.28;5053805;28;20029;-70
2023/07/20 10:36:30;;;;;;;3.67;2.22;;;;;;;-145.63;39.04;38525.59;5054754;28;20025;-69
2023/07/20 10:38:57;;;;;;;10.27;2.92;;;;;;;-145.63;39.27;38527.56;5053103;28;20032;-68
2023/07/20 10:41:40;;;;;;;5.20;1.80;;;;;;;-145.63;39.44;38545.16;5055490;28;20029;-66
2023/07/20 10:44:10;;;;;;;4.57;2.45;;;;;;;-145.63;39.40;38421.97;5038169;28;20021;-68
2023/07/20 10:46:39;;;;;;;3.65;2.30;;;;;;;-145.63;39.30;38500.19;5055085;28;20025;-69
2023/07/20 10:49:06;;;;;;;4.88;2.40;;;;;;;-145.63;38.63;38474.75;5056311;28;20313;-69
2023/07/20 10:51:43;;;;;;;4.60;2.53;;;;;;;-145.63;40.07;38515.81;5052754;28;20021;-68
2023/07/20 10:54:29;;;;;;;3.92;2.50;;;;;;;-145.63;40.46;38509.97;5055741;28;20090;-68
2023/07/20 10:57:15;;;;;;;6.72;2.40;;;;;;;-145.63;40.62;38484.53;5054527;28;20217;-68
2023/07/20 10:59:41;;;;;;;4.97;2.60;;;;;;;-145.63;39.95;38390.69;5055633;28;20026;-68
2023/07/20 11:02:08;;;;;;;6.60;2.60;;;;;;;-145.63;38.37;38457.16;5053948;28;20053;-68
2023/07/20 11:04:41;;;;;;;3.10;2.40;;;;;;;-145.63;39.28;38408.28;5048638;28;20221;-69
2023/07/20 11:07:08;;;;;;;6.13;2.42;;;;;;;-145.63;39.38;38463.03;5035319;28;20029;-68
2023/07/20 11:09:35;;;;;;;4.22;2.45;;;;;;;-145.63;38.83;38431.75;5051724;28;20051;-67
2023/07/20 11:12:15;;;;;;;3.45;2.20;;;;;;;-145.63;37.93;38392.63;5062800;28;20024;-69
2023/07/20 11:14:55;;;;;;;3.22;2.20;;;;;;;-145.63;36.21;38421.97;5043696;28;20037;-68
2023/07/20 11:17:29;;;;;;;5.70;2.42;;;;;;;-145.63;36.65;38330.06;5044954;28;20379;-68
2023/07/20 11:20:03;;;;;;;2.40;1.83;;;;;;;-145.63;36.20;38382.88;5062411;28;20052;-68